Weather History for Togiak, AK

Change the Weather History Date:

Saturday, March 2, 2013

  Actual Average Record
Temperature  
Mean Temperature 18 °F -  
Max Temperature 32 °F 26 °F 42 °F (2003)
Min Temperature 5 °F 14 °F -9 °F (1999)
Degree Days  
Heating Degree Days 46    
Moisture  
Dew Point 19 °F    
Average Humidity 80    
Maximum Humidity 92    
Minimum Humidity 68    
Precipitation  
Precipitation 0.00 in - - ()
Sea Level Pressure  
Sea Level Pressure 29.73 in    
Wind  
Wind Speed 14 mph (NE)    
Max Wind Speed 23 mph    
Max Gust Speed 31 mph    
Visibility 10 miles    
Events      
Averages and records for this station are not official NWS values.
T = Trace of Precipitation, MM = Missing Value Source: NWS Daily Summary

Daily Weather History Graph

Daily Weather History Graph

Search for Another Location

Airport:

Trip Planner

Search our weather history database for the weather conditions in past years. The results will help you decide how hot, cold, wet, or windy it might be!

Date:

Astronomy

Mar. 02, 2013 Rise Set
Actual Time 8:33 AM AKST 7:14 PM AKST
Civil Twilight 7:53 AM AKST 7:55 PM AKST
Nautical Twilight 7:06 AM AKST 8:41 PM AKST
Astronomical Twilight 6:19 AM AKST 9:29 PM AKST
Moon 1:20 AM AKST (3/2) 9:45 AM AKST (3/2)
Length of Visible Light 12h 01m
Length of Day
10h 40m
Waning Gibbous, 72% of the Moon is Illuminated
Mar 2
Waning Gibbous
Mar 4
Last Quarter
Mar 11
New
Mar 19
First Quarter
Mar 27
Full

Hourly Weather History & Observations

Time (AKST) Temp. Windchill Dew Point Humidity Pressure Visibility Wind Dir Wind Speed Gust Speed Precip Events Conditions
12:16 AM 6.8 °F -8.6 °F 3.2 °F 85% 29.83 in 10.0 mi North 11.5 mph - N/A   Clear
12:36 AM 5.0 °F -10.8 °F -2.2 °F 72% 29.83 in 10.0 mi North 11.5 mph - N/A   Clear
12:56 AM 6.8 °F -9.3 °F 3.2 °F 85% 29.82 in 10.0 mi North 12.7 mph - N/A   Clear
1:16 AM 8.6 °F -7.7 °F 6.8 °F 92% 29.82 in 10.0 mi North 13.8 mph - N/A   Clear
1:36 AM 6.8 °F -10.0 °F -0.4 °F 72% 29.81 in 10.0 mi NNE 13.8 mph - N/A   Clear
1:56 AM 8.6 °F -5.5 °F 5.0 °F 85% 29.81 in 10.0 mi North 10.4 mph - N/A   Clear
2:16 AM 10.4 °F -3.3 °F 8.6 °F 92% 29.80 in 10.0 mi North 10.4 mph - N/A   Clear
3:16 AM 12.2 °F 1.7 °F 8.6 °F 85% 29.82 in 10.0 mi NNE 6.9 mph - N/A   Clear
3:36 AM 12.2 °F 1.7 °F 8.6 °F 85% 29.82 in 10.0 mi North 6.9 mph - N/A   Clear
3:56 AM 12.2 °F -2.5 °F 6.8 °F 79% 29.80 in 10.0 mi NNE 12.7 mph - N/A   Clear
4:16 AM 15.8 °F 2.7 °F 12.2 °F 86% 29.79 in 10.0 mi NE 11.5 mph - N/A   Clear
4:36 AM 12.2 °F -2.5 °F 8.6 °F 85% 29.78 in 10.0 mi NNE 12.7 mph - N/A   Clear
4:56 AM 14.0 °F -0.2 °F 10.4 °F 86% 29.77 in 10.0 mi NNE 12.7 mph - N/A   Clear
5:16 AM 19.4 °F 6.0 °F 15.8 °F 86% 29.77 in 10.0 mi NE 13.8 mph - N/A   Clear
5:36 AM 21.2 °F 6.8 °F 12.2 °F 68% 29.76 in 10.0 mi NE 17.3 mph 24.2 mph N/A   Clear
5:56 AM 21.2 °F 7.3 °F 14.0 °F 74% 29.76 in 10.0 mi ENE 16.1 mph 24.2 mph N/A   Clear
6:16 AM 23.0 °F 9.6 °F 15.8 °F 74% 29.76 in 10.0 mi NE 16.1 mph - N/A   Mostly Cloudy
6:36 AM 23.0 °F 9.2 °F 15.8 °F 74% 29.75 in 10.0 mi NE 17.3 mph - N/A   Overcast
6:56 AM 23.0 °F 8.7 °F 17.6 °F 80% 29.75 in 10.0 mi NNE 18.4 mph - N/A   Overcast
7:16 AM 23.0 °F 10.1 °F 17.6 °F 80% 29.75 in 10.0 mi NE 15.0 mph 19.6 mph N/A   Overcast
7:36 AM 24.8 °F 12.4 °F 21.2 °F 86% 29.74 in 10.0 mi ENE 15.0 mph 20.7 mph N/A   Overcast
7:56 AM 24.8 °F 13.4 °F 19.4 °F 80% 29.74 in 10.0 mi ENE 12.7 mph 20.7 mph N/A   Overcast
8:16 AM 24.8 °F 11.5 °F 21.2 °F 86% 29.73 in 10.0 mi East 17.3 mph 23.0 mph N/A   Overcast
8:36 AM 26.6 °F 14.7 °F 21.2 °F 80% 29.73 in 10.0 mi ENE 15.0 mph - N/A   Overcast
8:56 AM 26.6 °F 13.8 °F 21.2 °F 80% 29.73 in 10.0 mi ENE 17.3 mph 23.0 mph N/A   Overcast
9:16 AM 26.6 °F 15.7 °F 21.2 °F 80% 29.73 in 10.0 mi NE 12.7 mph - N/A   Overcast
9:36 AM 26.6 °F 14.7 °F 21.2 °F 80% 29.73 in 10.0 mi ENE 15.0 mph 23.0 mph N/A   Overcast
9:56 AM 26.6 °F 14.7 °F 21.2 °F 80% 29.72 in 10.0 mi ENE 15.0 mph 20.7 mph N/A   Overcast
10:16 AM 26.6 °F 12.7 °F 21.2 °F 80% 29.72 in 10.0 mi East 20.7 mph - N/A   Overcast
10:36 AM 26.6 °F 12.0 °F 21.2 °F 80% 29.71 in 10.0 mi East 23.0 mph 31.1 mph N/A   Overcast
10:56 AM 26.6 °F 13.4 °F 21.2 °F 80% 29.72 in 8.0 mi ENE 18.4 mph - N/A   Overcast
11:16 AM 26.6 °F 13.4 °F 21.2 °F 80% 29.72 in 10.0 mi East 18.4 mph - N/A   Overcast
11:36 AM 28.4 °F 15.8 °F 21.2 °F 74% 29.72 in 9.0 mi East 18.4 mph 28.8 mph N/A   Overcast
11:56 AM 28.4 °F 14.7 °F 21.2 °F 74% 29.71 in 9.0 mi ENE 21.9 mph 28.8 mph N/A   Overcast
12:16 PM 28.4 °F 16.2 °F 21.2 °F 74% 29.71 in 9.0 mi ENE 17.3 mph 27.6 mph N/A   Overcast
12:36 PM 26.6 °F 13.4 °F 19.4 °F 74% 29.71 in 10.0 mi NE 18.4 mph 25.3 mph N/A   Overcast
12:56 PM 26.6 °F 13.8 °F 19.4 °F 74% 29.71 in 10.0 mi NE 17.3 mph - N/A   Overcast
1:16 PM 28.4 °F 16.2 °F 21.2 °F 74% 29.70 in 10.0 mi NE 17.3 mph - N/A   Mostly Cloudy
1:36 PM 26.6 °F 14.7 °F 21.2 °F 80% 29.70 in 10.0 mi ENE 15.0 mph 20.7 mph N/A   Mostly Cloudy
1:56 PM 28.4 °F 15.8 °F 21.2 °F 74% 29.69 in 10.0 mi ENE 18.4 mph 23.0 mph N/A   Mostly Cloudy
2:16 PM 28.4 °F 15.8 °F 21.2 °F 74% 29.69 in 10.0 mi ENE 18.4 mph 23.0 mph N/A   Overcast
2:36 PM 28.4 °F 16.2 °F 21.2 °F 74% 29.69 in 10.0 mi ENE 17.3 mph - N/A   Overcast
2:56 PM 28.4 °F 17.5 °F 21.2 °F 74% 29.68 in 10.0 mi ENE 13.8 mph - N/A   Mostly Cloudy
3:16 PM 28.4 °F 15.4 °F 21.2 °F 74% 29.67 in 10.0 mi ENE 19.6 mph 24.2 mph N/A   Mostly Cloudy
3:36 PM 28.4 °F 15.8 °F 21.2 °F 74% 29.67 in 10.0 mi ENE 18.4 mph - N/A   Mostly Cloudy
3:56 PM 28.4 °F 16.2 °F 21.2 °F 74% 29.67 in 10.0 mi ENE 17.3 mph - N/A   Mostly Cloudy
4:16 PM 28.4 °F 17.5 °F 21.2 °F 74% 29.67 in 10.0 mi ENE 13.8 mph - N/A   Overcast
4:36 PM 28.4 °F 16.6 °F 21.2 °F 74% 29.67 in 10.0 mi NE 16.1 mph 20.7 mph N/A   Mostly Cloudy
4:56 PM 28.4 °F 18.0 °F 21.2 °F 74% 29.67 in 10.0 mi NE 12.7 mph - N/A   Overcast
5:16 PM 26.6 °F 13.8 °F 21.2 °F 80% 29.68 in 10.0 mi NE 17.3 mph - N/A   Overcast
5:36 PM 26.6 °F 13.1 °F 21.2 °F 80% 29.67 in 10.0 mi NE 19.6 mph - N/A   Overcast
5:56 PM 28.4 °F 15.8 °F 23.0 °F 80% 29.68 in 10.0 mi NE 18.4 mph - N/A   Overcast
6:16 PM 28.4 °F 15.4 °F 23.0 °F 80% 29.67 in 10.0 mi NE 19.6 mph 24.2 mph N/A   Overcast
6:36 PM 28.4 °F 16.6 °F 24.8 °F 86% 29.67 in 10.0 mi NE 16.1 mph - N/A   Overcast
6:56 PM 28.4 °F 16.2 °F 24.8 °F 86% 29.68 in 10.0 mi NE 17.3 mph 24.2 mph N/A   Overcast
7:16 PM 30.2 °F 17.8 °F 24.8 °F 80% 29.68 in 10.0 mi NE 19.6 mph 24.2 mph N/A   Overcast
7:36 PM 30.2 °F 17.8 °F 24.8 °F 80% 29.69 in 10.0 mi NE 19.6 mph 25.3 mph N/A   Overcast
7:56 PM 30.2 °F 18.9 °F 24.8 °F 80% 29.70 in 10.0 mi NE 16.1 mph 23.0 mph N/A   Overcast
8:16 PM 30.2 °F 18.5 °F 26.6 °F 86% 29.69 in 10.0 mi NNE 17.3 mph 21.9 mph N/A   Overcast
8:36 PM 30.2 °F 21.3 °F 26.6 °F 86% 29.70 in 10.0 mi ENE 10.4 mph 20.7 mph N/A   Overcast
8:56 PM 30.2 °F 19.8 °F 26.6 °F 86% 29.71 in 10.0 mi NNE 13.8 mph - N/A   Overcast
9:16 PM 30.2 °F 19.8 °F 26.6 °F 86% 29.71 in 10.0 mi NE 13.8 mph 18.4 mph N/A   Overcast
9:36 PM 30.2 °F 18.9 °F 26.6 °F 86% 29.71 in 10.0 mi NE 16.1 mph 21.9 mph N/A   Overcast
9:56 PM 30.2 °F 21.3 °F 26.6 °F 86% 29.72 in 10.0 mi ENE 10.4 mph 16.1 mph N/A   Overcast
10:16 PM 32.0 °F 20.8 °F 26.6 °F 80% 29.72 in 10.0 mi NE 17.3 mph 23.0 mph N/A   Overcast
10:36 PM 32.0 °F 22.1 °F 26.6 °F 80% 29.73 in 10.0 mi NE 13.8 mph 19.6 mph N/A   Overcast
10:56 PM 30.2 °F 20.8 °F 26.6 °F 86% 29.73 in 10.0 mi NE 11.5 mph - N/A   Overcast
11:16 PM 32.0 °F 23.6 °F 28.4 °F 87% 29.73 in 10.0 mi NE 10.4 mph 17.3 mph N/A   Overcast
11:36 PM 32.0 °F 20.8 °F 28.4 °F 87% 29.74 in 8.0 mi NNE 17.3 mph 23.0 mph N/A   Overcast
11:56 PM 32.0 °F 19.8 °F 28.4 °F 87% 29.74 in 7.0 mi NNE 20.7 mph - N/A   Overcast